Terminal Aerodrome Forecast
Issued by NWS Wilmington, OH

Current Version | Previous Version | Text Only | Print | Product List | Glossary Off
Versions: 1 2 3 4 5 6 7 8 9 10 11 12 13 14 15 16 17

000
FTUS41 KILN 181700
TAFDAY
TAF
KDAY 181732Z 1818/1918 29006KT P6SM -SN OVC018
     FM182200 31006KT P6SM SCT015 OVC025
     FM190300 30005KT P6SM OVC015
     FM191600 28006KT P6SM OVC022=

USA.gov is the U.S. government's official web portal to all federal, state and local government web resources and services.